.
WxDataArchive / Data Records for 2016-06-01
2016-05-31 June 2016 2016-06-02

Data Records for Wednesday, 01 June 2016

Time	Temp	Chill	HIndex	Humid	Dewpt	 Wind 	HiWind	WindDir	Rain 	Barom
-----	----	-----	------	-----	-----	------	------	-------	-----	-----
00:00	69.9	69.9	69.9	46	48.2	0	1	68	0.00	29.959 
00:05	69.8	69.8	69.8	46	48.1	0	1	68	0.00	29.959 
00:10	69.4	69.4	69.4	47	48.3	0	2	68	0.00	29.959 
00:15	69.3	69.3	69.3	47	48.2	0	1	68	0.00	29.950 
00:20	68.9	68.9	68.9	48	48.4	0	1	68	0.00	29.950 
00:25	68.8	68.8	68.8	48	48.3	0	1	68	0.00	29.950 
00:30	68.6	68.6	68.6	49	48.7	0	0	---	0.00	29.953 
00:35	68.3	68.3	68.3	49	48.4	0	1	68	0.00	29.953 
00:40	68.1	68.1	68.1	50	48.7	0	0	---	0.00	29.953 
00:45	67.8	67.8	67.8	50	48.5	0	0	---	0.00	29.955 
00:50	67.4	67.4	67.4	50	48.1	0	0	---	0.00	29.955 
00:55	67.1	67.1	67.1	51	48.4	0	0	---	0.00	29.955 
01:00	66.8	66.8	66.8	51	48.1	0	0	---	0.00	29.957 
01:05	66.3	66.3	66.3	52	48.1	0	0	---	0.00	29.957 
01:10	66.1	66.1	66.1	53	48.5	0	0	---	0.00	29.957 
01:15	65.8	65.8	65.8	54	48.7	0	0	---	0.00	29.960 
01:20	65.5	65.5	65.5	55	48.9	0	0	---	0.00	29.960 
01:25	65.2	65.2	65.2	56	49.1	0	0	---	0.00	29.960 
01:30	65.0	65.0	65.0	57	49.4	0	0	---	0.00	29.959 
01:35	64.8	64.8	64.8	59	50.1	0	0	---	0.00	29.959 
01:40	64.7	64.7	64.7	60	50.5	0	1	68	0.00	29.959 
01:45	64.7	64.7	64.7	59	50.0	0	1	68	0.00	29.952 
01:50	65.0	65.0	65.0	57	49.4	0	1	68	0.00	29.952 
01:55	65.3	65.3	65.3	54	48.2	0	1	68	0.00	29.952 
02:00	65.8	65.8	65.8	53	48.2	0	3	68	0.00	29.949 
02:05	66.3	66.3	66.3	52	48.1	0	3	68	0.00	29.949 
02:10	66.4	66.4	66.4	52	48.2	1	3	68	0.00	29.949 
02:15	66.4	66.4	66.4	52	48.2	0	3	68	0.00	29.943 
02:20	66.6	66.6	66.6	52	48.4	1	3	68	0.00	29.943 
02:25	66.6	66.6	66.6	52	48.4	0	2	68	0.00	29.943 
02:30	66.6	----	66.6	52	48.4	---	0	---	0.00	29.936 
02:35	66.6	----	66.6	52	48.4	---	0	---	0.00	29.936 
02:40	66.3	66.3	66.3	53	48.6	0	1	45	0.00	29.936 
02:45	66.3	66.3	66.3	53	48.6	0	3	45	0.00	29.944 
02:50	66.1	66.1	66.1	53	48.5	1	2	45	0.00	29.944 
02:55	66.0	66.0	66.0	54	48.9	1	2	45	0.00	29.944 
03:00	66.0	66.0	66.0	54	48.9	0	1	45	0.00	29.940 
03:05	65.8	65.8	65.8	54	48.7	0	1	45	0.00	29.940 
03:10	65.6	65.6	65.6	55	49.0	0	1	45	0.00	29.940 
03:15	65.5	65.5	65.5	55	48.9	0	3	45	0.00	29.954 
03:20	65.3	65.3	65.3	56	49.2	0	1	45	0.00	29.954 
03:25	65.2	65.2	65.2	56	49.1	0	1	45	0.00	29.954 
03:30	65.2	65.2	65.2	56	49.1	0	3	45	0.00	29.956 
03:35	65.2	65.2	65.2	56	49.1	1	3	45	0.00	29.956 
03:40	65.2	65.2	65.2	56	49.1	1	3	45	0.00	29.956 
03:45	65.0	65.0	65.0	56	48.9	1	4	68	0.00	29.952 
03:50	65.0	65.0	65.0	57	49.4	0	2	68	0.00	29.952 
03:55	64.8	64.8	64.8	58	49.7	1	3	68	0.00	29.952 
04:00	64.7	64.7	64.7	58	49.6	1	4	68	0.00	29.953 
04:05	64.5	64.5	64.5	58	49.4	0	3	68	0.00	29.953 
04:10	64.5	64.5	64.5	59	49.8	1	4	68	0.00	29.953 
04:15	64.3	64.3	64.3	60	50.1	1	3	90	0.00	29.937 
04:20	64.2	64.2	64.2	60	50.0	1	3	90	0.00	29.937 
04:25	64.2	64.2	64.2	60	50.0	1	3	90	0.00	29.937 
04:30	64.2	64.2	64.2	61	50.5	1	4	90	0.00	29.933 
04:35	64.0	64.0	64.0	62	50.7	1	5	68	0.00	29.933 
04:40	63.9	63.9	63.9	62	50.6	1	4	68	0.00	29.933 
04:45	63.7	63.7	63.7	62	50.4	0	2	68	0.00	29.934 
04:50	63.7	63.7	63.7	63	50.9	1	3	68	0.00	29.934 
04:55	63.5	63.5	63.5	63	50.7	1	3	68	0.00	29.934 
05:00	63.4	63.4	63.4	64	51.0	1	4	68	0.00	29.935 
05:05	63.2	63.2	63.2	64	50.8	0	3	68	0.00	29.935 
05:10	63.2	63.2	63.2	65	51.2	0	2	68	0.00	29.935 
05:15	63.1	63.1	63.1	65	51.1	1	3	68	0.00	29.936 
05:20	63.1	63.1	63.1	65	51.1	1	3	68	0.00	29.936 
05:25	63.1	63.1	63.1	65	51.1	0	2	68	0.00	29.936 
05:30	62.9	62.9	62.9	65	50.9	0	3	68	0.00	29.941 
05:35	62.9	62.9	62.9	65	50.9	0	2	68	0.00	29.941 
05:40	63.1	63.1	63.1	65	51.1	0	2	45	0.00	29.941 
05:45	63.1	63.1	63.1	65	51.1	1	5	45	0.00	29.943 
05:50	63.4	63.4	63.4	65	51.4	1	4	68	0.00	29.943 
05:55	63.5	63.5	63.5	65	51.5	2	5	68	0.00	29.943 
06:00	63.7	63.7	63.7	65	51.7	1	6	68	0.00	29.943 
06:05	63.7	63.7	63.7	65	51.7	1	4	68	0.00	29.943 
06:10	63.9	63.9	63.9	65	51.9	1	4	68	0.00	29.943 
06:15	63.7	63.7	63.7	65	51.7	2	4	68	0.00	29.955 
06:20	63.7	63.7	63.7	65	51.7	1	3	68	0.00	29.955 
06:25	63.5	63.5	63.5	65	51.5	1	3	68	0.00	29.955 
06:30	63.5	63.5	63.5	65	51.5	1	3	68	0.00	29.960 
06:35	63.5	63.5	63.5	65	51.5	1	3	68	0.00	29.960 
06:40	63.5	63.5	63.5	65	51.5	1	4	68	0.00	29.960 
06:45	63.5	63.5	63.5	65	51.5	1	3	68	0.00	29.961 
06:50	63.7	63.7	63.7	65	51.7	1	4	68	0.00	29.961 
06:55	63.7	63.7	63.7	65	51.7	1	4	68	0.00	29.961 
07:00	63.7	63.7	63.7	65	51.7	2	5	90	0.00	29.961 
07:05	63.7	63.7	63.7	64	51.3	2	5	90	0.00	29.961 
07:10	63.9	63.9	63.9	64	51.5	1	4	68	0.00	29.961 
07:15	63.9	63.9	63.9	64	51.5	2	3	68	0.00	29.964 
07:20	64.0	64.0	64.0	64	51.6	1	3	68	0.00	29.964 
07:25	64.2	64.2	64.2	64	51.8	1	4	68	0.00	29.964 
07:30	64.3	64.3	64.3	64	51.9	1	3	68	0.00	29.963 
07:35	64.5	64.5	64.5	63	51.6	2	5	68	0.00	29.963 
07:40	65.0	65.0	65.0	62	51.7	2	5	68	0.00	29.963 
07:45	65.5	65.5	65.5	62	52.1	1	4	68	0.00	29.962 
07:50	66.0	66.0	66.0	60	51.7	1	4	68	0.00	29.962 
07:55	66.1	66.1	66.1	60	51.8	1	6	68	0.00	29.962 
08:00	66.3	66.3	66.3	60	52.0	2	6	68	0.00	29.958 
08:05	66.3	66.3	66.3	60	52.0	2	4	68	0.00	29.958 
08:10	66.4	66.4	66.4	60	52.1	2	4	90	0.00	29.958 
08:15	66.8	66.8	66.8	61	52.9	1	4	68	0.00	29.956 
08:20	66.9	66.9	66.9	60	52.6	2	5	90	0.00	29.956 
08:25	66.9	66.9	66.9	60	52.6	2	5	90	0.00	29.956 
08:30	67.1	67.1	67.1	61	53.2	1	4	90	0.00	29.950 
08:35	67.4	67.4	67.4	59	52.6	2	5	90	0.00	29.950 
08:40	67.4	67.4	67.4	60	53.0	1	4	90	0.00	29.950 
08:45	67.4	67.4	67.4	59	52.6	1	5	90	0.00	29.951 
08:50	67.6	67.6	67.6	60	53.2	1	4	68	0.00	29.951 
08:55	67.9	67.9	67.9	59	53.0	1	3	112	0.00	29.951 
09:00	68.1	68.1	68.1	59	53.2	2	5	68	0.00	29.957 
09:05	68.1	68.1	68.1	58	52.8	1	4	68	0.00	29.957 
09:10	68.4	68.4	68.4	58	53.0	1	4	68	0.00	29.957 
09:15	68.6	68.6	68.6	58	53.2	1	3	68	0.00	29.953 
09:20	68.8	68.8	68.8	58	53.4	1	3	68	0.00	29.953 
09:25	69.3	69.3	69.3	57	53.4	1	5	68	0.00	29.953 
09:30	70.1	70.1	70.1	56	53.7	2	6	112	0.00	29.949 
09:35	70.9	70.9	70.9	55	53.9	1	3	112	0.00	29.949 
09:40	71.6	71.6	71.6	54	54.1	1	5	68	0.00	29.949 
09:45	72.0	72.0	72.0	54	54.4	2	6	68	0.00	29.945 
09:50	72.3	72.3	72.3	54	54.7	1	3	68	0.00	29.945 
09:55	72.7	72.7	72.7	54	55.1	1	3	68	0.00	29.945 
10:00	73.0	73.0	73.0	52	54.3	1	4	90	0.00	29.943 
10:05	73.3	73.3	73.3	52	54.6	0	3	90	0.00	29.943 
10:10	74.0	74.0	74.0	51	54.7	0	2	90	0.00	29.943 
10:15	74.6	74.6	74.6	50	54.7	0	3	90	0.00	29.941 
10:20	74.9	74.9	74.9	51	55.5	0	2	90	0.00	29.941 
10:25	75.3	75.3	77.7	50	55.4	0	4	90	0.00	29.941 
10:30	75.6	75.6	77.9	50	55.6	0	2	90	0.00	29.938 
10:35	76.1	76.1	78.1	49	55.5	0	2	90	0.00	29.938 
10:40	76.1	76.1	78.1	49	55.5	0	3	90	0.00	29.938 
10:45	76.0	76.0	78.1	49	55.4	0	3	90	0.00	29.934 
10:50	76.0	76.0	78.1	50	56.0	0	1	90	0.00	29.934 
10:55	76.1	76.1	78.1	49	55.5	0	2	90	0.00	29.934 
11:00	76.5	76.5	78.3	49	55.9	0	3	90	0.00	29.933 
11:05	76.8	76.8	78.5	49	56.2	0	1	90	0.00	29.933 
11:10	77.4	77.4	78.8	48	56.1	0	2	90	0.00	29.933 
11:15	77.6	77.6	78.9	49	56.9	1	4	90	0.00	29.932 
11:20	78.1	78.1	79.3	49	57.4	0	2	90	0.00	29.932 
11:25	78.6	78.6	79.4	45	55.5	0	1	90	0.00	29.932 
11:30	79.4	79.4	79.9	45	56.2	0	2	90	0.00	29.932 
11:35	79.9	79.9	80.2	44	56.0	0	1	90	0.00	29.932 
11:40	80.5	80.5	80.7	45	57.2	0	2	90	0.00	29.932 
11:45	81.2	81.2	81.1	43	56.5	1	3	90	0.00	29.925 
11:50	81.6	81.6	81.6	44	57.5	0	2	90	0.00	29.925 
11:55	82.2	82.2	82.4	46	59.3	0	1	90	0.00	29.925 
12:00	82.6	82.6	82.4	43	57.8	1	3	90	0.00	29.916 
12:05	83.0	83.0	83.1	45	59.4	0	1	90	0.00	29.916 
12:10	83.8	83.8	83.1	40	56.9	0	3	90	0.00	29.916 
12:15	83.6	83.6	82.9	40	56.7	0	3	90	0.00	29.916 
12:20	84.0	84.0	83.4	41	57.7	0	2	90	0.00	29.916 
12:25	84.5	84.5	84.1	42	58.9	0	3	90	0.00	29.916 
12:30	84.9	84.9	84.8	43	59.9	0	1	90	0.00	29.913 
12:35	85.7	85.7	85.7	43	60.6	0	3	90	0.00	29.913 
12:40	85.9	85.9	84.9	38	57.3	1	3	90	0.00	29.913 
12:45	85.7	85.7	85.1	40	58.6	0	2	90	0.00	29.907 
12:50	85.5	85.5	85.7	44	61.1	0	1	90	0.00	29.907 
12:55	85.5	85.5	84.5	38	57.0	0	2	90	0.00	29.907 
13:00	85.3	85.3	84.3	38	56.8	0	2	112	0.00	29.900 
13:05	85.1	85.1	84.6	41	58.7	0	2	112	0.00	29.900 
13:10	84.9	84.9	84.0	39	57.1	0	1	112	0.00	29.900 
13:15	84.9	84.9	84.0	39	57.1	0	2	112	0.00	29.900 
13:20	84.9	84.9	84.0	39	57.1	0	3	112	0.00	29.900 
13:25	85.1	85.1	84.8	42	59.4	0	1	112	0.00	29.900 
13:30	85.3	85.3	84.7	40	58.2	0	2	112	0.00	29.891 
13:35	85.3	85.3	84.7	40	58.2	1	3	90	0.00	29.891 
13:40	85.3	85.3	84.7	40	58.2	1	9	112	0.00	29.891 
13:45	84.9	84.9	83.9	38	56.4	0	1	68	0.00	29.888 
13:50	84.5	84.5	83.3	37	55.3	0	1	68	0.00	29.888 
13:55	84.3	84.3	83.1	37	55.2	0	1	68	0.00	29.888 
14:00	84.0	84.0	83.1	39	56.3	0	1	68	0.00	29.885 
14:05	83.6	83.6	82.9	40	56.7	0	1	68	0.00	29.885 
14:10	83.2	83.2	82.8	42	57.7	0	2	68	0.00	29.885 
14:15	82.8	82.8	82.6	43	58.0	0	2	22	0.00	29.889 
14:20	82.8	82.8	82.4	42	57.3	0	1	22	0.00	29.889 
14:25	83.0	83.0	82.9	44	58.8	0	1	22	0.00	29.889 
14:30	83.0	83.0	82.6	42	57.5	0	1	22	0.00	29.885 
14:35	83.2	83.2	82.8	42	57.7	0	1	22	0.00	29.885 
14:40	83.2	83.2	82.8	42	57.7	0	1	22	0.00	29.885 
14:45	83.0	83.0	82.5	41	56.8	0	1	22	0.00	29.882 
14:50	83.0	83.0	82.5	41	56.8	0	0	---	0.00	29.882 
14:55	83.0	83.0	82.8	43	58.2	0	1	22	0.00	29.882 
15:00	83.0	83.0	82.9	44	58.8	0	1	22	0.00	29.879 
15:05	83.0	83.0	82.8	43	58.2	1	3	22	0.00	29.879 
15:10	82.0	82.0	82.2	46	59.1	3	9	292	0.00	29.879 
15:15	80.5	80.5	81.3	50	60.1	2	4	292	0.00	29.886 
15:20	79.9	79.9	80.9	52	60.7	1	4	292	0.00	29.886 
15:25	79.2	79.2	80.4	53	60.6	2	4	315	0.00	29.886 
15:30	78.5	78.5	79.8	54	60.4	3	6	292	0.00	29.890 
15:35	77.7	77.7	79.2	55	60.2	2	5	315	0.00	29.890 
15:40	77.6	77.6	79.2	57	61.1	2	4	292	0.00	29.890 
15:45	77.4	77.4	79.1	57	61.0	1	4	292	0.00	29.894 
15:50	77.4	77.4	79.1	58	61.4	2	5	292	0.00	29.894 
15:55	77.2	77.2	78.9	57	60.8	2	7	270	0.00	29.894 
16:00	77.2	77.2	78.9	58	61.3	2	8	292	0.00	29.894 
16:05	77.0	77.0	78.8	58	61.1	3	8	292	0.00	29.894 
16:10	77.0	77.0	78.8	59	61.6	1	4	292	0.00	29.894 
16:15	76.8	76.8	78.6	59	61.4	2	5	338	0.00	29.894 
16:20	76.7	76.7	78.5	59	61.3	2	6	292	0.00	29.894 
16:25	76.7	76.7	78.5	60	61.7	2	5	292	0.00	29.894 
16:30	76.5	76.5	78.4	62	62.5	2	7	292	0.00	29.894 
16:35	76.1	76.1	78.0	63	62.6	2	7	338	0.00	29.894 
16:40	75.6	75.6	77.6	64	62.5	2	7	292	0.00	29.894 
16:45	75.4	75.4	77.4	65	62.8	1	4	292	0.00	29.895 
16:50	75.3	75.3	77.4	64	62.3	2	4	292	0.00	29.895 
16:55	75.1	75.1	77.2	64	62.1	1	5	292	0.00	29.895 
17:00	74.9	74.9	74.9	65	62.3	1	7	292	0.00	29.895 
17:05	74.7	74.7	74.7	67	63.0	0	2	68	0.00	29.895 
17:10	74.6	74.6	74.6	66	62.5	1	6	292	0.00	29.895 
17:15	74.4	74.4	74.4	68	63.1	0	3	292	0.00	29.899 
17:20	74.2	74.2	74.2	67	62.5	1	3	270	0.00	29.899 
17:25	73.9	73.9	73.9	69	63.1	1	3	292	0.00	29.899 
17:30	73.7	73.7	73.7	69	62.9	1	3	292	0.00	29.900 
17:35	73.3	73.3	73.3	71	63.3	1	4	292	0.00	29.900 
17:40	73.2	73.2	73.2	72	63.6	0	2	292	0.00	29.900 
17:45	73.0	73.0	73.0	72	63.4	0	2	292	0.00	29.897 
17:50	73.0	73.0	73.0	73	63.8	0	1	292	0.00	29.897 
17:55	73.0	73.0	73.0	73	63.8	0	1	292	0.00	29.897 
18:00	73.0	73.0	73.0	73	63.8	0	1	292	0.00	29.895 
18:05	73.2	73.2	73.2	73	64.0	0	1	292	0.00	29.895 
18:10	73.2	73.2	73.2	73	64.0	0	1	292	0.00	29.895 
18:15	73.3	73.3	73.3	72	63.7	0	1	292	0.00	29.882 
18:20	73.3	73.3	73.3	73	64.1	0	1	292	0.00	29.882 
18:25	73.5	73.5	73.5	72	63.9	0	2	292	0.00	29.882 
18:30	73.7	73.7	73.7	73	64.5	0	1	292	0.00	29.874 
18:35	73.9	73.9	73.9	73	64.7	0	3	292	0.00	29.874 
18:40	74.0	74.0	74.0	73	64.8	0	1	292	0.00	29.874 
18:45	74.2	74.2	74.2	72	64.6	0	3	292	0.00	29.870 
18:50	74.2	74.2	74.2	71	64.2	0	2	292	0.00	29.870 
18:55	74.6	74.6	74.6	71	64.6	0	1	292	0.00	29.870 
19:00	74.9	74.9	74.9	70	64.4	0	1	292	0.00	29.876 
19:05	75.1	75.1	76.9	69	64.2	0	2	292	0.00	29.876 
19:10	75.1	75.1	76.9	69	64.2	0	0	---	0.00	29.876 
19:15	75.1	75.1	76.9	69	64.2	0	0	---	0.00	29.877 
19:20	75.3	75.3	77.0	69	64.4	0	0	---	0.00	29.877 
19:25	75.4	75.4	77.2	68	64.1	0	0	---	0.00	29.877 
19:30	75.6	75.6	77.4	68	64.3	0	0	---	0.00	29.887 
19:35	75.6	75.6	77.4	68	64.3	0	1	292	0.00	29.887 
19:40	75.8	75.8	77.6	68	64.5	0	0	---	0.00	29.887 
19:45	76.0	76.0	77.8	67	64.2	0	1	292	0.00	29.888 
19:50	76.0	76.0	77.8	67	64.2	0	1	292	0.00	29.888 
19:55	76.0	76.0	77.7	68	64.7	0	2	292	0.00	29.888 
20:00	76.0	76.0	77.8	67	64.2	0	2	292	0.00	29.888 
20:05	76.0	76.0	77.8	67	64.2	0	1	292	0.00	29.888 
20:10	75.8	75.8	77.6	67	64.0	0	1	292	0.00	29.888 
20:15	75.6	75.6	77.4	67	63.9	0	1	292	0.00	29.889 
20:20	75.4	75.4	77.2	68	64.1	0	0	---	0.00	29.889 
20:25	75.3	75.3	77.1	68	64.0	0	1	292	0.00	29.889 
20:30	75.1	75.1	76.9	68	63.8	0	1	292	0.00	29.893 
20:35	74.9	74.9	74.9	68	63.6	0	0	---	0.00	29.893 
20:40	74.7	74.7	74.7	69	63.8	0	0	---	0.00	29.893 
20:45	74.6	74.6	74.6	69	63.7	0	0	---	0.00	29.896 
20:50	74.4	74.4	74.4	69	63.5	0	0	---	0.00	29.896 
20:55	74.2	74.2	74.2	69	63.4	0	0	---	0.00	29.896 
21:00	74.0	74.0	74.0	70	63.6	0	0	---	0.00	29.893 
21:05	73.7	73.7	73.7	70	63.3	0	0	---	0.00	29.893 
21:10	73.5	73.5	73.5	71	63.5	0	0	---	0.00	29.893 
21:15	73.2	73.2	73.2	72	63.6	0	0	---	0.00	29.892 
21:20	73.0	73.0	73.0	72	63.4	0	0	---	0.00	29.892 
21:25	72.8	72.8	72.8	73	63.6	0	0	---	0.00	29.892 
21:30	72.7	72.7	72.7	73	63.5	0	0	---	0.00	29.893 
21:35	72.5	72.5	72.5	74	63.7	0	0	---	0.00	29.893 
21:40	72.1	72.1	72.1	74	63.3	0	0	---	0.00	29.893 
21:45	71.8	71.8	71.8	75	63.4	0	0	---	0.00	29.895 
21:50	71.6	71.6	71.6	76	63.6	0	0	---	0.00	29.895 
21:55	71.3	71.3	71.3	76	63.3	0	0	---	0.00	29.895 
22:00	71.1	71.1	71.1	77	63.5	0	0	---	0.00	29.901 
22:05	70.8	70.8	70.8	77	63.2	0	0	---	0.00	29.901 
22:10	70.6	70.6	70.6	78	63.4	0	0	---	0.00	29.901 
22:15	70.4	70.4	70.4	78	63.2	0	0	---	0.00	29.903 
22:20	70.3	70.3	70.3	79	63.5	0	0	---	0.00	29.903 
22:25	69.9	69.9	69.9	79	63.1	0	0	---	0.00	29.903 
22:30	69.8	69.8	69.8	81	63.7	0	0	---	0.00	29.907 
22:35	69.4	69.4	69.4	81	63.3	0	0	---	0.00	29.907 
22:40	69.3	69.3	69.3	82	63.6	0	0	---	0.00	29.907 
22:45	69.1	69.1	69.1	82	63.4	0	0	---	0.00	29.908 
22:50	68.9	68.9	68.9	82	63.2	0	0	---	0.00	29.908 
22:55	68.8	68.8	68.8	83	63.4	0	0	---	0.00	29.908 
23:00	68.6	68.6	68.6	83	63.2	0	0	---	0.00	29.908 
23:05	68.4	68.4	68.4	84	63.4	0	0	---	0.00	29.908 
23:10	68.3	68.3	68.3	84	63.3	0	0	---	0.00	29.908 
23:15	68.1	68.1	68.1	84	63.1	0	0	---	0.00	29.904 
23:20	67.9	67.9	67.9	84	62.9	0	0	---	0.00	29.904 
23:25	67.9	67.9	67.9	85	63.2	0	0	---	0.00	29.904 
23:30	67.8	67.8	67.8	85	63.1	0	0	---	0.00	29.900 
23:35	67.6	67.6	67.6	85	62.9	0	0	---	0.00	29.900 
23:40	67.4	67.4	67.4	85	62.7	0	0	---	0.00	29.900 
23:45	67.3	67.3	67.3	85	62.6	0	0	---	0.00	29.902 
23:50	67.1	67.1	67.1	86	62.8	0	0	---	0.00	29.902 
23:55	67.1	67.1	67.1	86	62.8	0	0	---	0.00	29.902 

CoCoRaHS
IN-AL-39
A2 Web Hosting
Creative Commons License
GoDaddy
search engine by freefind advanced

loaded 2018-11-21 00:37:37 • last modified 2010-11-18 10:43:29
Privacy PolicyDisclaimer
• wx.awcolley.com is powered by PmWiki v.2002016 •
• all content (unless otherwise noted) © 2018 A W Colley